Time;durP1;ratioP1;P1;durP2;ratioP2;P2;SDS_P1;SDS_P2;PMS_P1;PMS_P2;Temp;Humidity;BMP_temperature;BMP_pressure;BME280_temperature;BME280_humidity;BME280_pressure;Samples;Min_cycle;Max_cycle;Signal;HPM_P1;HPM_P2
2023/12/09 00:00:46;;;;;;;0.25;0.25;;;;;;;16.56;61.51;101018.47;5069232;28;20886;-63
2023/12/09 00:03:11;;;;;;;0.40;0.40;;;;;;;16.99;60.20;101020.13;5048869;28;20131;-63
2023/12/09 00:05:37;;;;;;;0.40;0.40;;;;;;;17.14;59.03;101018.28;5053476;28;20046;-62
2023/12/09 00:08:02;;;;;;;0.30;0.30;;;;;;;17.53;58.19;101022.31;5069608;28;20515;-66
2023/12/09 00:10:28;;;;;;;0.22;0.22;;;;;;;16.74;60.54;101017.25;5069596;28;20044;-62
2023/12/09 00:12:54;;;;;;;0.32;0.32;;;;;;;16.08;63.13;101026.72;5069566;28;20064;-62
2023/12/09 00:15:20;;;;;;;0.20;0.20;;;;;;;16.11;62.36;101024.31;5070030;28;20146;-63
2023/12/09 00:17:45;;;;;;;0.20;0.20;;;;;;;16.29;62.37;101023.13;5069704;28;20119;-62
2023/12/09 00:20:11;;;;;;;0.30;0.30;;;;;;;16.51;61.30;101018.47;5069481;28;20620;-63
2023/12/09 00:22:36;;;;;;;0.40;0.40;;;;;;;16.64;60.37;101016.13;5069613;28;20488;-62
2023/12/09 00:25:02;;;;;;;0.40;0.40;;;;;;;15.89;64.31;101017.31;5069170;28;20587;-61
2023/12/09 00:27:27;;;;;;;0.32;0.32;;;;;;;16.97;58.88;101011.41;5069925;28;20106;-62
2023/12/09 00:29:53;;;;;;;0.47;0.47;;;;;;;16.31;62.30;101021.75;5069700;28;20036;-63
2023/12/09 00:32:18;;;;;;;0.25;0.25;;;;;;;16.97;60.20;101012.25;5069318;28;20059;-62
2023/12/09 00:34:43;;;;;;;0.40;0.40;;;;;;;17.24;57.77;101017.53;5069168;28;20071;-62
2023/12/09 00:37:09;;;;;;;0.40;0.40;;;;;;;16.77;60.67;101016.72;5069575;28;20215;-63
2023/12/09 00:39:34;;;;;;;0.32;0.32;;;;;;;16.66;61.05;101018.56;5068849;28;20122;-62
2023/12/09 00:41:59;;;;;;;0.30;0.30;;;;;;;16.73;60.48;101019.13;5068201;28;20466;-62
2023/12/09 00:44:25;;;;;;;0.30;0.30;;;;;;;17.33;57.65;101013.25;5068896;28;20591;-62
2023/12/09 00:46:50;;;;;;;0.35;0.35;;;;;;;17.33;57.87;101018.66;5069163;28;20036;-62
2023/12/09 00:49:16;;;;;;;0.30;0.30;;;;;;;16.93;58.42;101016.56;5068137;28;20051;-62
2023/12/09 00:51:41;;;;;;;0.20;0.20;;;;;;;17.45;56.48;101011.13;5058817;28;21657;-61
2023/12/09 00:54:07;;;;;;;0.40;0.40;;;;;;;16.15;61.36;101014.59;5063301;28;20099;-62
2023/12/09 00:56:32;;;;;;;0.30;0.30;;;;;;;16.98;59.38;101024.72;5070080;28;20068;-62
2023/12/09 00:58:57;;;;;;;0.35;0.35;;;;;;;17.10;58.68;101019.91;5070352;28;20131;-62
2023/12/09 01:01:23;;;;;;;0.20;0.20;;;;;;;16.73;59.93;101015.63;5063127;28;20136;-62
2023/12/09 01:03:48;;;;;;;0.32;0.32;;;;;;;16.24;61.71;101014.91;5050253;28;20123;-62
2023/12/09 01:06:13;;;;;;;0.40;0.40;;;;;;;16.12;63.18;101020.50;5059143;28;20120;-62
2023/12/09 01:08:39;;;;;;;0.38;0.38;;;;;;;16.23;62.20;101024.97;5070343;28;20043;-62
2023/12/09 01:11:04;;;;;;;0.28;0.28;;;;;;;17.25;58.57;101027.31;5069876;28;20040;-61
2023/12/09 01:13:30;;;;;;;0.30;0.30;;;;;;;16.45;61.41;101019.47;5070164;28;20041;-62
2023/12/09 01:15:55;;;;;;;0.40;0.40;;;;;;;15.64;63.29;101023.28;5070027;28;20476;-62
2023/12/09 01:18:21;;;;;;;0.40;0.40;;;;;;;15.64;64.69;101024.09;5070523;28;20036;-63
2023/12/09 01:20:46;;;;;;;0.20;0.20;;;;;;;15.48;65.52;101029.59;5070000;28;20556;-61
2023/12/09 01:23:13;;;;;;;0.40;0.40;;;;;;;15.20;68.07;101035.97;5070150;28;20047;-61
2023/12/09 01:25:38;;;;;;;0.30;0.30;;;;;;;15.08;66.83;101042.56;5069983;28;20045;-62
2023/12/09 01:28:03;;;;;;;0.30;0.30;;;;;;;15.09;67.49;101036.91;5069973;28;20090;-61
2023/12/09 01:30:29;;;;;;;0.30;0.30;;;;;;;15.47;65.74;101025.22;5069979;28;20115;-61
2023/12/09 01:32:54;;;;;;;0.30;0.30;;;;;;;15.11;68.47;101023.13;5070168;28;20029;-62
2023/12/09 01:35:19;;;;;;;0.20;0.20;;;;;;;15.40;65.78;101022.69;5069689;28;20043;-62
2023/12/09 01:37:45;;;;;;;0.30;0.30;;;;;;;15.25;66.69;101018.97;5070192;28;20131;-61
2023/12/09 01:40:14;;;;;;;0.40;0.40;;;;;;;16.30;61.92;101014.72;5069693;28;20040;-64
2023/12/09 01:42:42;;;;;;;0.20;0.20;;;;;;;15.31;65.70;101026.09;5070058;28;20047;-61
2023/12/09 01:45:07;;;;;;;0.40;0.40;;;;;;;15.46;65.38;101020.91;5069878;28;20070;-61
2023/12/09 01:47:35;;;;;;;0.30;0.30;;;;;;;14.90;67.67;101016.59;5069888;28;20037;-62
2023/12/09 01:50:02;;;;;;;0.25;0.25;;;;;;;15.10;66.78;101018.75;5069522;28;20045;-61
2023/12/09 01:52:28;;;;;;;0.20;0.20;;;;;;;15.72;63.84;101014.69;5069666;28;20132;-61
2023/12/09 01:54:54;;;;;;;0.45;0.45;;;;;;;14.94;67.18;101029.38;5069628;28;20079;-62
2023/12/09 01:57:19;;;;;;;0.30;0.30;;;;;;;15.20;66.44;101025.13;5070382;28;20068;-62
2023/12/09 01:59:44;;;;;;;0.47;0.47;;;;;;;14.71;66.96;101018.78;5071065;28;20033;-61
2023/12/09 02:02:10;;;;;;;0.40;0.40;;;;;;;15.18;65.74;101013.75;5061108;28;20041;-62
2023/12/09 02:04:35;;;;;;;0.50;0.50;;;;;;;15.56;64.31;101005.59;5053200;28;20076;-63
2023/12/09 02:07:01;;;;;;;0.38;0.38;;;;;;;14.72;67.33;101009.56;5068361;28;20044;-62
2023/12/09 02:09:26;;;;;;;0.45;0.45;;;;;;;15.42;63.86;101008.94;5073224;28;20028;-61
2023/12/09 02:12:05;;;;;;;0.40;0.40;;;;;;;15.47;64.99;101004.38;5073612;28;20389;-62
2023/12/09 02:15:01;;;;;;;0.40;0.40;;;;;;;15.00;67.53;100999.72;5073125;28;20036;-63
2023/12/09 02:17:36;;;;;;;0.47;0.47;;;;;;;15.22;65.60;101008.63;5072988;28;20086;-62
2023/12/09 02:20:03;;;;;;;0.30;0.30;;;;;;;14.87;67.66;101009.00;5073344;28;20071;-62
2023/12/09 02:22:28;;;;;;;0.43;0.43;;;;;;;15.08;66.46;101004.66;5072841;28;20036;-62
2023/12/09 02:24:53;;;;;;;0.30;0.30;;;;;;;15.87;62.76;100993.16;5072724;28;20036;-61
2023/12/09 02:27:31;;;;;;;0.30;0.30;;;;;;;15.46;64.46;100991.94;5073563;28;20028;-61
2023/12/09 02:30:03;;;;;;;0.28;0.28;;;;;;;14.98;65.86;100992.63;5073384;28;20445;-62
2023/12/09 02:32:33;;;;;;;0.20;0.20;;;;;;;16.03;62.05;100970.56;5072889;28;20512;-62
2023/12/09 02:35:00;;;;;;;0.30;0.30;;;;;;;16.05;61.35;100967.59;5072666;28;20117;-62
2023/12/09 02:37:26;;;;;;;0.43;0.43;;;;;;;15.70;61.83;100968.88;5072696;28;20128;-62
2023/12/09 02:39:53;;;;;;;0.45;0.45;;;;;;;16.01;61.42;100975.41;5072841;28;20032;-61
2023/12/09 02:42:18;;;;;;;0.40;0.40;;;;;;;15.11;65.40;100971.69;5073029;28;20017;-62
2023/12/09 02:44:44;;;;;;;0.20;0.20;;;;;;;15.87;62.34;100970.66;5072232;28;20055;-61
2023/12/09 02:47:13;;;;;;;0.28;0.28;;;;;;;15.47;63.18;100973.75;5072497;28;20079;-62
2023/12/09 02:49:39;;;;;;;0.20;0.20;;;;;;;15.62;62.86;100966.66;5072679;28;20036;-61
2023/12/09 02:52:04;;;;;;;0.28;0.28;;;;;;;15.11;65.07;100982.53;5072598;28;20036;-61
2023/12/09 02:54:30;;;;;;;0.40;0.40;;;;;;;15.51;63.57;100974.91;5072307;28;20074;-63
2023/12/09 02:56:55;;;;;;;0.30;0.30;;;;;;;15.02;64.83;100968.59;5072718;28;20016;-62
2023/12/09 02:59:20;;;;;;;0.40;0.40;;;;;;;15.45;64.10;100965.91;5072342;28;20045;-62
2023/12/09 03:01:46;;;;;;;0.30;0.30;;;;;;;16.12;61.93;100960.03;5061837;28;20056;-61
2023/12/09 03:04:11;;;;;;;0.20;0.20;;;;;;;15.37;64.39;100960.09;5052396;28;20037;-62
2023/12/09 03:06:36;;;;;;;0.30;0.30;;;;;;;15.90;61.74;100954.69;5064188;28;20036;-62
2023/12/09 03:09:03;;;;;;;0.20;0.20;;;;;;;15.78;62.56;100954.88;5072623;28;20043;-62
2023/12/09 03:11:28;;;;;;;0.20;0.20;;;;;;;15.24;64.61;100947.75;5070909;28;20041;-62
2023/12/09 03:13:53;;;;;;;0.30;0.30;;;;;;;15.34;64.52;100936.22;5072256;28;20083;-62
2023/12/09 03:16:18;;;;;;;0.40;0.40;;;;;;;14.83;65.86;100938.31;5071925;28;20148;-60
2023/12/09 03:18:44;;;;;;;0.25;0.25;;;;;;;15.79;62.39;100929.41;5072126;28;20043;-63
2023/12/09 03:21:14;;;;;;;0.30;0.30;;;;;;;15.89;61.93;100928.69;5072381;28;20036;-62
2023/12/09 03:23:42;;;;;;;0.30;0.30;;;;;;;16.00;61.82;100919.56;5072024;28;20035;-62
2023/12/09 03:26:18;;;;;;;0.40;0.40;;;;;;;15.52;62.93;100922.38;5069887;28;20028;-61
2023/12/09 03:28:44;;;;;;;0.40;0.40;;;;;;;16.11;61.54;100917.75;5071970;28;20443;-61
2023/12/09 03:31:13;;;;;;;0.30;0.30;;;;;;;17.04;57.51;100922.41;5071799;28;20032;-62
2023/12/09 03:33:39;;;;;;;0.32;0.32;;;;;;;15.72;61.33;100922.59;5071747;28;20021;-62
2023/12/09 03:36:09;;;;;;;0.40;0.40;;;;;;;16.19;60.92;100920.81;5072075;28;20032;-64
2023/12/09 03:38:35;;;;;;;0.25;0.25;;;;;;;16.69;58.76;100923.88;5071603;28;20036;-61
2023/12/09 03:41:03;;;;;;;0.40;0.40;;;;;;;16.03;61.59;100924.47;5071134;28;20069;-61
2023/12/09 03:43:28;;;;;;;0.30;0.30;;;;;;;16.13;60.54;100916.44;5071199;28;20039;-62
2023/12/09 03:45:54;;;;;;;0.30;0.30;;;;;;;16.11;60.95;100918.59;5071301;28;20040;-62
2023/12/09 03:48:19;;;;;;;0.45;0.45;;;;;;;16.26;59.76;100929.53;5071807;28;20111;-61
2023/12/09 03:50:44;;;;;;;0.40;0.40;;;;;;;15.76;61.44;100931.84;5071440;28;20519;-62
2023/12/09 03:53:10;;;;;;;0.30;0.30;;;;;;;15.99;61.17;100926.06;5071270;28;20068;-62
2023/12/09 03:55:35;;;;;;;0.30;0.30;;;;;;;16.13;59.90;100924.56;5071170;28;20090;-62
2023/12/09 03:58:00;;;;;;;0.30;0.30;;;;;;;15.99;61.20;100920.66;5071263;28;20544;-61
2023/12/09 04:00:26;;;;;;;0.30;0.30;;;;;;;16.04;61.37;100915.25;5071091;28;20487;-62
2023/12/09 04:02:51;;;;;;;0.30;0.30;;;;;;;15.92;61.73;100905.69;5053642;28;20103;-61
2023/12/09 04:05:17;;;;;;;0.17;0.17;;;;;;;16.23;60.52;100905.66;5051831;28;20477;-63
2023/12/09 04:07:42;;;;;;;0.28;0.28;;;;;;;16.26;60.17;100910.53;5071003;28;20443;-62
2023/12/09 04:10:09;;;;;;;0.20;0.20;;;;;;;15.60;62.03;100911.09;5070863;28;20551;-62
2023/12/09 04:12:34;;;;;;;0.30;0.30;;;;;;;15.32;62.59;100908.59;5070707;28;20056;-62
2023/12/09 04:15:01;;;;;;;0.30;0.30;;;;;;;15.24;63.83;100915.28;5071269;28;20196;-61
2023/12/09 04:17:26;;;;;;;0.40;0.40;;;;;;;15.50;62.53;100919.94;5070784;28;20058;-62
2023/12/09 04:19:51;;;;;;;0.30;0.30;;;;;;;15.58;62.59;100921.34;5070890;28;20159;-62
2023/12/09 04:22:17;;;;;;;0.47;0.47;;;;;;;15.62;62.86;100919.78;5070834;28;20036;-62
2023/12/09 04:24:42;;;;;;;0.32;0.32;;;;;;;15.64;62.56;100921.16;5070540;28;20089;-61
2023/12/09 04:27:08;;;;;;;0.25;0.25;;;;;;;15.16;64.64;100912.19;5069648;28;20029;-62
2023/12/09 04:29:34;;;;;;;0.40;0.40;;;;;;;14.80;64.83;100922.59;5069338;28;20075;-61
2023/12/09 04:31:59;;;;;;;0.17;0.17;;;;;;;15.81;61.91;100905.59;5069138;28;20041;-62
2023/12/09 04:34:24;;;;;;;0.30;0.30;;;;;;;15.84;60.83;100905.06;5069491;28;20044;-62
2023/12/09 04:36:49;;;;;;;0.30;0.30;;;;;;;15.36;62.22;100898.88;5069398;28;20101;-62
2023/12/09 04:39:15;;;;;;;0.30;0.30;;;;;;;16.23;59.63;100894.81;5069447;28;20170;-62
2023/12/09 04:41:40;;;;;;;0.30;0.30;;;;;;;16.27;59.14;100890.50;5069074;28;20170;-62
2023/12/09 04:44:06;;;;;;;0.30;0.30;;;;;;;15.58;61.42;100891.56;5069246;28;20519;-62
2023/12/09 04:46:31;;;;;;;0.40;0.40;;;;;;;15.55;62.27;100881.22;5069212;28;20040;-63
2023/12/09 04:48:57;;;;;;;0.20;0.20;;;;;;;15.29;62.22;100898.28;5069378;28;20028;-62
2023/12/09 04:51:23;;;;;;;0.30;0.30;;;;;;;14.91;63.90;100893.78;5069297;28;20540;-62
2023/12/09 04:53:48;;;;;;;0.30;0.30;;;;;;;14.23;66.46;100896.06;5069674;28;20459;-62
2023/12/09 04:56:14;;;;;;;0.30;0.30;;;;;;;15.29;63.19;100892.88;5068872;28;20067;-63
2023/12/09 04:58:39;;;;;;;0.47;0.47;;;;;;;15.62;61.56;100892.69;5069197;28;20129;-62
2023/12/09 05:01:05;;;;;;;0.50;0.50;;;;;;;15.20;62.86;100884.38;5067377;28;20086;-62
2023/12/09 05:03:30;;;;;;;0.30;0.30;;;;;;;15.22;61.78;100884.09;5068082;28;20111;-62
2023/12/09 05:05:56;;;;;;;0.30;0.30;;;;;;;15.04;63.18;100881.72;5068853;28;20028;-62
2023/12/09 05:08:21;;;;;;;0.30;0.30;;;;;;;14.85;64.00;100887.50;5068592;28;20036;-62
2023/12/09 05:10:46;;;;;;;0.30;0.30;;;;;;;14.94;63.57;100882.44;5068336;28;20039;-62
2023/12/09 05:13:12;;;;;;;0.30;0.30;;;;;;;15.16;62.77;100877.00;5068056;28;20079;-62
2023/12/09 05:15:37;;;;;;;0.30;0.30;;;;;;;14.52;64.96;100867.84;5068465;28;20027;-63
2023/12/09 05:18:03;;;;;;;0.38;0.38;;;;;;;14.89;63.47;100871.56;5067515;28;20112;-62
2023/12/09 05:20:29;;;;;;;0.30;0.30;;;;;;;15.19;62.37;100873.81;5068743;28;20071;-62
2023/12/09 05:22:55;;;;;;;0.38;0.38;;;;;;;14.60;64.31;100873.63;5068769;28;20083;-63
2023/12/09 05:25:20;;;;;;;0.30;0.30;;;;;;;14.60;63.96;100862.81;5068683;28;20082;-62
2023/12/09 05:27:45;;;;;;;0.30;0.30;;;;;;;15.56;60.81;100847.66;5068662;28;20137;-62
2023/12/09 05:30:11;;;;;;;0.30;0.30;;;;;;;15.21;62.33;100852.72;5069254;28;20151;-61
2023/12/09 05:32:36;;;;;;;0.40;0.40;;;;;;;15.47;60.65;100850.00;5068557;28;20060;-61
2023/12/09 05:35:02;;;;;;;0.50;0.50;;;;;;;14.97;63.86;100854.88;5070435;28;20052;-61
2023/12/09 05:37:27;;;;;;;0.30;0.30;;;;;;;14.54;64.32;100846.78;5072694;28;20063;-61
2023/12/09 05:39:52;;;;;;;0.30;0.30;;;;;;;15.68;60.25;100853.72;5072803;28;20129;-63
2023/12/09 05:42:18;;;;;;;0.30;0.30;;;;;;;15.16;62.46;100841.81;5073232;28;20112;-61
2023/12/09 05:44:43;;;;;;;0.30;0.30;;;;;;;15.30;61.56;100851.16;5072156;28;20140;-62
2023/12/09 05:47:09;;;;;;;0.20;0.20;;;;;;;14.94;62.41;100844.56;5072419;28;20060;-63
2023/12/09 05:49:34;;;;;;;0.20;0.20;;;;;;;14.81;63.78;100843.06;5072456;28;20108;-62
2023/12/09 05:51:59;;;;;;;0.30;0.30;;;;;;;14.98;63.27;100842.97;5072577;28;20053;-62
2023/12/09 05:54:25;;;;;;;0.40;0.40;;;;;;;15.87;59.65;100836.00;5072523;28;20027;-62
2023/12/09 05:56:50;;;;;;;0.40;0.40;;;;;;;14.97;63.38;100841.34;5072819;28;20385;-63
2023/12/09 05:59:15;;;;;;;0.30;0.30;;;;;;;15.46;61.67;100842.16;5072452;28;20412;-62
2023/12/09 06:01:41;;;;;;;0.50;0.50;;;;;;;15.56;61.44;100848.47;5069914;28;20033;-61
2023/12/09 06:04:06;;;;;;;0.30;0.30;;;;;;;15.59;60.41;100841.72;5052030;28;20029;-63
2023/12/09 06:06:31;;;;;;;0.20;0.20;;;;;;;14.38;65.01;100839.53;5052196;28;20087;-62
2023/12/09 06:08:57;;;;;;;0.30;0.30;;;;;;;15.50;61.27;100827.84;5052244;28;20107;-62
2023/12/09 06:11:22;;;;;;;0.32;0.32;;;;;;;15.49;60.39;100822.66;5051938;28;20116;-62
2023/12/09 06:13:47;;;;;;;0.30;0.30;;;;;;;16.00;59.34;100818.47;5052067;28;20033;-61
2023/12/09 06:16:17;;;;;;;0.22;0.22;;;;;;;15.94;59.21;100809.47;5062389;28;20045;-61
2023/12/09 06:18:42;;;;;;;0.30;0.30;;;;;;;15.87;59.74;100810.78;5070121;28;20037;-62
2023/12/09 06:21:07;;;;;;;0.30;0.30;;;;;;;14.72;63.45;100812.09;5072272;28;20035;-63
2023/12/09 06:23:33;;;;;;;0.40;0.40;;;;;;;14.88;63.30;100802.28;5071808;28;20033;-61
2023/12/09 06:25:58;;;;;;;0.40;0.40;;;;;;;15.34;60.86;100808.97;5071796;28;20044;-63
2023/12/09 06:28:23;;;;;;;0.20;0.20;;;;;;;15.74;60.06;100793.09;5068251;28;20159;-61
2023/12/09 06:30:49;;;;;;;0.50;0.50;;;;;;;15.52;60.69;100795.91;5051741;28;20105;-63
2023/12/09 06:33:14;;;;;;;0.20;0.20;;;;;;;15.82;59.02;100787.97;5051769;28;20107;-62
2023/12/09 06:35:39;;;;;;;0.40;0.40;;;;;;;15.85;59.43;100794.78;5051747;28;20157;-62
2023/12/09 06:38:05;;;;;;;0.20;0.20;;;;;;;15.41;60.80;100779.81;5051450;28;20067;-62
2023/12/09 06:40:30;;;;;;;0.30;0.30;;;;;;;15.25;61.08;100784.22;5051417;28;20494;-61
2023/12/09 06:42:55;;;;;;;0.30;0.30;;;;;;;15.17;61.00;100784.72;5051111;28;20056;-61
2023/12/09 06:45:21;;;;;;;0.20;0.20;;;;;;;14.64;63.37;100771.97;5050991;28;20168;-62
2023/12/09 06:47:47;;;;;;;0.40;0.40;;;;;;;14.85;62.59;100768.44;5050622;28;20067;-61
2023/12/09 06:50:13;;;;;;;0.40;0.40;;;;;;;15.52;60.13;100768.81;5051470;28;20075;-61
2023/12/09 06:52:39;;;;;;;0.40;0.40;;;;;;;15.17;60.53;100768.50;5049855;28;20499;-62
2023/12/09 06:55:04;;;;;;;0.40;0.40;;;;;;;15.37;60.62;100757.81;5051214;28;20401;-61
2023/12/09 06:57:30;;;;;;;0.40;0.40;;;;;;;15.20;61.11;100757.13;5051146;28;20031;-61
2023/12/09 06:59:56;;;;;;;0.30;0.30;;;;;;;15.14;61.27;100760.03;5070225;28;20081;-62
2023/12/09 07:02:21;;;;;;;0.35;0.35;;;;;;;14.90;61.60;100756.84;5070717;28;20068;-63
2023/12/09 07:04:47;;;;;;;0.40;0.40;;;;;;;14.91;62.32;100748.50;5071043;28;20059;-63
2023/12/09 07:07:12;;;;;;;0.30;0.30;;;;;;;15.15;61.31;100750.88;5070929;28;20081;-61
2023/12/09 07:09:37;;;;;;;0.30;0.30;;;;;;;15.21;60.29;100749.84;5070862;28;20024;-62
2023/12/09 07:12:03;;;;;;;0.20;0.20;;;;;;;15.28;60.44;100743.13;5071233;28;20099;-61
2023/12/09 07:14:29;;;;;;;0.30;0.30;;;;;;;15.36;59.43;100739.13;5070766;28;20511;-61
2023/12/09 07:16:54;;;;;;;0.30;0.30;;;;;;;15.27;60.10;100732.56;5070560;28;20097;-61
2023/12/09 07:19:20;;;;;;;0.40;0.40;;;;;;;15.28;59.69;100723.34;5070478;28;20127;-61
2023/12/09 07:21:45;;;;;;;0.40;0.40;;;;;;;14.71;61.36;100717.69;5070797;28;20028;-62
2023/12/09 07:24:10;;;;;;;0.40;0.40;;;;;;;14.98;61.27;100708.50;5071105;28;20100;-62
2023/12/09 07:26:36;;;;;;;0.40;0.40;;;;;;;14.82;61.37;100705.88;5050412;28;20386;-62
2023/12/09 07:29:05;;;;;;;0.40;0.40;;;;;;;14.23;62.95;100699.53;5066486;28;20157;-62
2023/12/09 07:31:30;;;;;;;0.40;0.40;;;;;;;14.55;62.27;100686.97;5070580;28;20417;-62
2023/12/09 07:33:55;;;;;;;0.40;0.40;;;;;;;14.86;61.16;100688.06;5070406;28;20032;-61
2023/12/09 07:36:21;;;;;;;0.40;0.40;;;;;;;14.72;61.16;100700.41;5071048;28;20122;-62
2023/12/09 07:38:46;;;;;;;0.30;0.30;;;;;;;14.13;63.25;100696.75;5070077;28;20121;-63
2023/12/09 07:41:12;;;;;;;0.30;0.30;;;;;;;14.28;62.20;100690.72;5070270;28;20492;-60
2023/12/09 07:43:37;;;;;;;0.40;0.40;;;;;;;14.75;61.57;100689.06;5070057;28;20153;-62
2023/12/09 07:46:03;;;;;;;0.22;0.22;;;;;;;14.90;61.03;100681.91;5070504;28;20071;-62
2023/12/09 07:48:28;;;;;;;0.40;0.40;;;;;;;14.16;63.47;100690.00;5070273;28;20039;-61
2023/12/09 07:50:53;;;;;;;0.30;0.30;;;;;;;14.70;61.41;100686.31;5070633;28;20032;-62
2023/12/09 07:53:19;;;;;;;0.28;0.28;;;;;;;14.91;60.67;100688.13;5070096;28;20033;-61
2023/12/09 07:55:44;;;;;;;0.30;0.30;;;;;;;14.92;60.73;100685.16;5069560;28;20504;-61
2023/12/09 07:58:10;;;;;;;0.40;0.40;;;;;;;14.93;60.41;100689.53;5069170;28;20449;-62
2023/12/09 08:00:35;;;;;;;0.30;0.30;;;;;;;14.73;61.10;100689.31;5069431;28;20030;-62
2023/12/09 08:03:04;;;;;;;0.43;0.43;;;;;;;14.25;63.43;100683.09;5069562;28;20055;-62
2023/12/09 08:05:31;;;;;;;0.28;0.28;;;;;;;14.93;60.43;100675.16;5066824;28;20040;-61
2023/12/09 08:07:57;;;;;;;0.28;0.28;;;;;;;14.91;61.27;100685.44;5067727;28;20032;-61
2023/12/09 08:10:22;;;;;;;0.50;0.50;;;;;;;15.26;59.97;100690.31;5069517;28;20043;-61
2023/12/09 08:12:47;;;;;;;0.30;0.30;;;;;;;15.06;59.73;100682.84;5067635;28;20448;-62
2023/12/09 08:15:13;;;;;;;0.30;0.30;;;;;;;14.68;61.56;100672.25;5069647;28;20428;-61
2023/12/09 08:17:39;;;;;;;0.38;0.38;;;;;;;14.84;60.92;100674.81;5069219;28;20082;-63
2023/12/09 08:20:08;;;;;;;0.40;0.40;;;;;;;14.69;61.19;100660.31;5069214;28;20040;-62
2023/12/09 08:22:36;;;;;;;0.20;0.20;;;;;;;14.87;60.54;100668.91;5065080;28;20408;-62
2023/12/09 08:25:03;;;;;;;0.35;0.35;;;;;;;14.53;61.92;100662.06;5068449;28;20043;-61
2023/12/09 08:27:29;;;;;;;0.30;0.30;;;;;;;14.75;61.33;100662.00;5069050;28;20503;-62
2023/12/09 08:29:54;;;;;;;0.30;0.30;;;;;;;15.03;60.59;100658.19;5069437;28;20028;-62
2023/12/09 08:32:19;;;;;;;0.30;0.30;;;;;;;15.32;59.54;100654.91;5068942;28;20040;-64
2023/12/09 08:34:45;;;;;;;0.32;0.32;;;;;;;15.30;59.49;100643.50;5069129;28;20028;-62
2023/12/09 08:37:10;;;;;;;0.20;0.20;;;;;;;14.69;61.28;100642.22;5068512;28;20051;-63
2023/12/09 08:39:38;;;;;;;0.40;0.40;;;;;;;15.15;59.29;100629.88;5069245;28;20036;-62
2023/12/09 08:42:04;;;;;;;0.40;0.40;;;;;;;14.87;60.85;100628.31;5069502;28;20543;-61
2023/12/09 08:44:29;;;;;;;0.30;0.30;;;;;;;15.01;60.28;100622.47;5068585;28;20127;-62
2023/12/09 08:46:54;;;;;;;0.40;0.40;;;;;;;14.89;61.12;100620.75;5069336;28;20095;-63
2023/12/09 08:49:20;;;;;;;0.40;0.40;;;;;;;14.26;62.82;100609.03;5069005;28;20131;-62
2023/12/09 08:51:47;;;;;;;0.30;0.30;;;;;;;14.29;63.58;100609.38;5065873;28;20279;-62
2023/12/09 08:54:13;;;;;;;0.28;0.28;;;;;;;14.37;62.61;100598.09;5067420;28;20068;-63
2023/12/09 08:56:38;;;;;;;0.25;0.25;;;;;;;14.61;62.47;100601.28;5066465;28;20086;-62
2023/12/09 08:59:07;;;;;;;0.30;0.30;;;;;;;14.76;60.98;100598.75;5068402;28;20032;-62
2023/12/09 09:01:33;;;;;;;0.28;0.28;;;;;;;14.88;61.11;100589.34;5066763;28;20516;-63
2023/12/09 09:03:58;;;;;;;0.30;0.30;;;;;;;15.42;59.62;100589.19;5068247;28;20042;-62
2023/12/09 09:06:24;;;;;;;0.20;0.20;;;;;;;15.16;59.07;100582.78;5068796;28;20035;-63
2023/12/09 09:08:49;;;;;;;0.32;0.32;;;;;;;15.22;60.02;100595.28;5068054;28;20052;-63
2023/12/09 09:11:14;;;;;;;0.35;0.35;;;;;;;15.80;57.49;100594.25;5066673;28;20080;-62
2023/12/09 09:13:40;;;;;;;0.40;0.40;;;;;;;15.53;57.46;100588.97;5067853;28;20143;-64
2023/12/09 09:16:05;;;;;;;0.40;0.40;;;;;;;15.97;57.37;100585.88;5068262;28;20116;-62
2023/12/09 09:18:32;;;;;;;0.38;0.38;;;;;;;15.95;57.15;100590.75;5065794;28;20051;-63
2023/12/09 09:20:57;;;;;;;0.40;0.40;;;;;;;15.97;56.48;100588.59;5068726;28;20058;-64
2023/12/09 09:23:23;;;;;;;0.30;0.30;;;;;;;15.89;56.69;100576.38;5066030;28;20166;-63
2023/12/09 09:25:48;;;;;;;0.30;0.30;;;;;;;15.57;58.32;100560.28;5065306;28;20124;-63
2023/12/09 09:28:13;;;;;;;0.20;0.20;;;;;;;15.69;58.10;100560.88;5068517;28;20249;-62
2023/12/09 09:30:39;;;;;;;0.20;0.20;;;;;;;15.40;59.48;100566.94;5068593;28;20091;-62
2023/12/09 09:33:06;;;;;;;0.40;0.40;;;;;;;15.63;58.64;100561.94;5068359;28;20036;-62
2023/12/09 09:35:31;;;;;;;0.20;0.20;;;;;;;15.59;58.73;100554.59;5068117;28;20082;-63
2023/12/09 09:37:57;;;;;;;0.28;0.28;;;;;;;15.34;59.35;100546.34;5065763;28;20037;-63
2023/12/09 09:40:22;;;;;;;0.50;0.50;;;;;;;15.48;58.75;100544.81;5067618;28;20045;-63
2023/12/09 09:42:56;;;;;;;0.30;0.30;;;;;;;15.22;59.90;100543.84;5066911;28;20051;-62
2023/12/09 09:45:26;;;;;;;0.20;0.20;;;;;;;15.34;59.91;100532.78;5065125;28;20136;-63
2023/12/09 09:47:53;;;;;;;0.32;0.32;;;;;;;15.24;59.56;100538.16;5065725;28;20094;-63
2023/12/09 09:50:24;;;;;;;0.20;0.20;;;;;;;15.47;59.27;100529.63;5066955;28;20033;-63
2023/12/09 09:52:51;;;;;;;0.30;0.30;;;;;;;15.26;59.16;100517.06;5064132;28;20044;-61
2023/12/09 09:55:18;;;;;;;0.40;0.40;;;;;;;15.27;59.28;100510.56;5066832;28;20058;-62
2023/12/09 09:57:44;;;;;;;0.45;0.45;;;;;;;15.38;59.03;100498.69;5067712;28;20063;-63
2023/12/09 10:00:14;;;;;;;0.30;0.30;;;;;;;15.63;57.95;100494.22;5065710;28;20048;-63
2023/12/09 10:02:47;;;;;;;0.30;0.30;;;;;;;15.53;58.88;100482.53;5067682;28;20124;-62
2023/12/09 10:05:17;;;;;;;0.32;0.32;;;;;;;15.00;59.87;100478.22;5067460;28;20037;-63
2023/12/09 10:07:44;;;;;;;0.30;0.30;;;;;;;15.78;57.43;100463.66;5067905;28;20117;-62
2023/12/09 10:10:11;;;;;;;0.30;0.30;;;;;;;15.00;59.97;100455.78;5067692;28;20095;-62
2023/12/09 10:12:36;;;;;;;0.20;0.20;;;;;;;15.56;58.58;100452.22;5067605;28;20032;-62
2023/12/09 10:15:03;;;;;;;0.20;0.20;;;;;;;15.41;58.53;100433.19;5066409;28;20058;-63
2023/12/09 10:17:29;;;;;;;0.40;0.40;;;;;;;15.52;57.90;100429.44;5067257;28;20080;-62
2023/12/09 10:19:55;;;;;;;0.55;0.55;;;;;;;15.35;58.02;100413.38;5065530;28;20044;-63
2023/12/09 10:22:21;;;;;;;0.20;0.20;;;;;;;15.50;57.88;100404.53;5070660;28;20036;-63
2023/12/09 10:24:50;;;;;;;0.22;0.22;;;;;;;15.10;58.86;100398.97;5070266;28;20429;-62
2023/12/09 10:27:18;;;;;;;0.30;0.30;;;;;;;15.99;56.29;100381.28;5071955;28;20048;-62
2023/12/09 10:29:43;;;;;;;0.30;0.30;;;;;;;15.32;58.23;100383.34;5068877;28;20075;-62
2023/12/09 10:32:09;;;;;;;0.30;0.30;;;;;;;15.44;58.11;100387.47;5071044;28;20063;-62
2023/12/09 10:34:35;;;;;;;0.30;0.30;;;;;;;15.02;59.21;100383.25;5069552;28;20047;-62
2023/12/09 10:37:01;;;;;;;0.28;0.28;;;;;;;15.46;57.94;100371.75;5071412;28;20058;-63
2023/12/09 10:39:26;;;;;;;0.40;0.40;;;;;;;15.91;56.32;100367.44;5070374;28;20024;-63
2023/12/09 10:41:51;;;;;;;0.30;0.30;;;;;;;15.15;59.02;100370.03;5071465;28;20023;-62
2023/12/09 10:44:18;;;;;;;0.30;0.30;;;;;;;15.42;58.15;100372.56;5068840;28;20119;-64
2023/12/09 10:46:44;;;;;;;0.28;0.28;;;;;;;15.36;57.86;100360.06;5070380;28;20064;-63
2023/12/09 10:49:09;;;;;;;0.20;0.20;;;;;;;16.04;56.07;100343.31;5071099;28;20179;-62
2023/12/09 10:51:34;;;;;;;0.30;0.30;;;;;;;15.44;57.38;100332.50;5070590;28;20025;-62
2023/12/09 10:54:00;;;;;;;0.20;0.20;;;;;;;15.74;56.86;100324.38;5070409;28;20429;-62
2023/12/09 10:56:25;;;;;;;0.20;0.20;;;;;;;15.81;56.42;100317.59;5070544;28;20056;-62
2023/12/09 10:58:52;;;;;;;0.20;0.20;;;;;;;15.77;56.77;100321.94;5070222;28;20059;-63
2023/12/09 11:01:19;;;;;;;0.30;0.30;;;;;;;16.28;54.67;100294.75;5067642;28;20040;-62
2023/12/09 11:03:44;;;;;;;0.30;0.30;;;;;;;15.78;56.68;100287.53;5070016;28;20098;-61
2023/12/09 11:06:13;;;;;;;0.20;0.20;;;;;;;16.01;55.85;100276.13;5070269;28;20111;-61
2023/12/09 11:08:40;;;;;;;0.30;0.30;;;;;;;15.89;56.34;100269.34;5051641;28;20032;-63
2023/12/09 11:11:07;;;;;;;0.30;0.30;;;;;;;15.81;56.47;100258.00;5066411;28;20696;-61
2023/12/09 11:13:34;;;;;;;0.20;0.20;;;;;;;15.82;55.75;100242.56;5062738;28;20086;-62
2023/12/09 11:16:15;;;;;;;0.20;0.20;;;;;;;15.73;56.65;100247.72;5069727;28;20040;-62
2023/12/09 11:18:51;;;;;;;0.40;0.40;;;;;;;15.69;56.62;100233.09;5067010;28;20543;-62